createdAt,value
2022-12-14T00:01:08.546Z,8.77
2022-12-14T00:06:13.154Z,8.80
2022-12-14T00:11:17.572Z,9.97
2022-12-14T00:16:21.185Z,8.60
2022-12-14T00:21:24.724Z,7.13
2022-12-14T00:26:30.959Z,8.47
2022-12-14T00:31:34.645Z,7.87
2022-12-14T00:36:37.946Z,7.07
2022-12-14T00:41:42.343Z,8.33
2022-12-14T00:46:45.250Z,8.33
2022-12-14T00:51:48.022Z,9.23
2022-12-14T00:56:52.200Z,8.30
2022-12-14T01:01:55.036Z,6.30
2022-12-14T01:06:58.002Z,8.97
2022-12-14T01:12:02.177Z,8.67
2022-12-14T01:17:05.113Z,7.60
2022-12-14T01:22:08.037Z,8.60
2022-12-14T01:27:12.628Z,8.70
2022-12-14T01:32:15.502Z,7.30
2022-12-14T01:37:18.307Z,9.17
2022-12-14T01:42:22.540Z,8.83
2022-12-14T01:47:29.648Z,8.90
2022-12-14T01:52:36.532Z,8.13
2022-12-14T01:57:43.001Z,7.57
2022-12-14T02:02:50.589Z,8.60
2022-12-14T02:07:55.937Z,8.23
2022-12-14T02:13:04.474Z,8.40
2022-12-14T02:18:10.736Z,8.00
2022-12-14T02:23:42.151Z,7.97
2022-12-14T02:29:16.453Z,9.13
2022-12-14T02:34:24.983Z,9.60
2022-12-14T02:39:34.866Z,8.03
2022-12-14T02:44:43.004Z,8.80
2022-12-14T02:49:53.753Z,8.70
2022-12-14T02:54:59.927Z,9.07
2022-12-14T03:00:06.400Z,9.13
2022-12-14T03:05:10.177Z,8.73
2022-12-14T03:10:20.366Z,8.33
2022-12-14T03:15:26.081Z,7.73
2022-12-14T03:20:30.363Z,8.13
2022-12-14T03:25:36.824Z,7.40
2022-12-14T03:31:00.566Z,8.27
2022-12-14T03:36:09.184Z,8.33
2022-12-14T03:41:18.274Z,7.67
2022-12-14T03:46:32.987Z,9.23
2022-12-14T03:51:41.772Z,7.33
2022-12-14T03:56:52.951Z,7.13
2022-12-14T04:02:02.876Z,6.80
2022-12-14T04:07:13.097Z,8.53
2022-12-14T04:12:34.906Z,7.50
2022-12-14T04:17:57.449Z,7.95
2022-12-14T04:23:04.627Z,9.27
2022-12-14T04:28:32.122Z,7.67
2022-12-14T04:33:48.980Z,8.63
2022-12-14T04:38:55.745Z,7.33
2022-12-14T04:44:01.895Z,8.30
2022-12-14T04:49:19.405Z,7.70
2022-12-14T04:54:25.341Z,7.00
2022-12-14T04:59:28.496Z,7.97
2022-12-14T05:04:54.840Z,8.97
2022-12-14T05:10:00.730Z,7.70
2022-12-14T05:15:06.823Z,6.20
2022-12-14T05:20:16.529Z,6.90
2022-12-14T05:25:19.363Z,6.50
2022-12-14T05:30:22.295Z,5.37
2022-12-14T05:35:26.674Z,6.37
2022-12-14T05:40:29.425Z,6.20
2022-12-14T05:45:32.282Z,6.37
2022-12-14T05:50:36.637Z,6.70
2022-12-14T05:55:39.528Z,6.80
2022-12-14T06:00:42.480Z,5.77
2022-12-14T06:05:47.397Z,7.17
2022-12-14T06:10:51.106Z,6.70
2022-12-14T06:15:54.019Z,6.73
2022-12-14T06:20:58.802Z,7.27
2022-12-14T06:26:01.755Z,7.47
2022-12-14T06:31:05.872Z,6.70
2022-12-14T06:36:17.595Z,5.73
2022-12-14T06:41:21.258Z,6.13
2022-12-14T06:46:25.196Z,6.23
2022-12-14T06:51:29.461Z,6.50
2022-12-14T06:56:32.261Z,7.50
2022-12-14T07:01:35.675Z,7.37
2022-12-14T07:06:41.599Z,7.30
2022-12-14T07:11:44.449Z,6.80
2022-12-14T07:16:48.597Z,6.93
2022-12-14T07:21:53.296Z,7.30
2022-12-14T07:26:56.662Z,7.07
2022-12-14T07:31:59.883Z,6.07
2022-12-14T07:37:04.285Z,5.67
2022-12-14T07:42:07.211Z,7.67
2022-12-14T07:47:13.829Z,5.33
2022-12-14T07:52:20.733Z,6.47
2022-12-14T07:57:23.539Z,4.90
2022-12-14T08:02:26.501Z,6.33
2022-12-14T08:07:31.564Z,7.93
2022-12-14T08:12:34.436Z,6.40
2022-12-14T08:17:37.276Z,6.97
2022-12-14T08:22:41.618Z,6.33
2022-12-14T08:27:44.486Z,6.87
2022-12-14T08:32:47.378Z,6.93
2022-12-14T08:37:54.635Z,7.13
2022-12-14T08:42:57.397Z,8.17
2022-12-14T08:48:01.627Z,6.63
2022-12-14T08:53:05.913Z,9.07
2022-12-14T08:58:08.779Z,6.83
2022-12-14T09:03:12.347Z,7.50
2022-12-14T09:08:16.576Z,7.63
2022-12-14T09:13:19.372Z,9.33
2022-12-14T09:18:22.164Z,8.67
2022-12-14T09:23:28.788Z,11.90
2022-12-14T09:28:32.558Z,7.87
2022-12-14T09:33:58.251Z,11.13
2022-12-14T09:39:02.833Z,11.03
2022-12-14T09:44:17.733Z,9.47
2022-12-14T09:49:27.354Z,9.20
2022-12-14T09:54:34.166Z,9.80
2022-12-14T09:59:37.061Z,10.77
2022-12-14T10:04:48.010Z,10.80
2022-12-14T10:09:58.099Z,10.87
2022-12-14T10:15:08.888Z,11.40
2022-12-14T10:20:17.951Z,11.10
2022-12-14T10:25:25.414Z,11.13
2022-12-14T10:30:28.621Z,11.17
2022-12-14T10:35:34.995Z,14.10
2022-12-14T10:40:43.632Z,12.43
2022-12-14T10:45:58.022Z,11.50
2022-12-14T10:51:03.293Z,12.80
2022-12-14T10:56:12.706Z,12.37
2022-12-14T11:01:16.650Z,11.60
2022-12-14T11:06:20.834Z,13.53
2022-12-14T11:11:26.308Z,12.30
2022-12-14T11:16:37.375Z,11.67
2022-12-14T11:21:40.500Z,11.07
2022-12-14T11:26:45.013Z,10.43
2022-12-14T11:31:49.348Z,10.93
2022-12-14T11:36:52.324Z,10.97
2022-12-14T11:42:03.788Z,9.70
2022-12-14T11:47:08.684Z,9.87
2022-12-14T11:52:13.005Z,10.33
2022-12-14T11:57:24.061Z,10.73
2022-12-14T12:02:30.421Z,10.43
2022-12-14T12:07:35.182Z,9.87
2022-12-14T12:12:39.948Z,10.20
2022-12-14T12:17:44.477Z,9.40
2022-12-14T12:22:50.549Z,9.17
2022-12-14T12:28:00.830Z,8.93
2022-12-14T12:33:11.247Z,8.30
2022-12-14T12:38:19.613Z,7.97
2022-12-14T12:43:27.783Z,6.87
2022-12-14T12:48:34.032Z,7.03
2022-12-14T12:53:41.033Z,6.70
2022-12-14T12:58:52.315Z,6.83
2022-12-14T13:03:57.850Z,5.93
2022-12-14T13:09:03.342Z,5.70
2022-12-14T13:14:17.356Z,6.10
2022-12-14T13:19:49.638Z,5.50
2022-12-14T13:24:51.882Z,5.90
2022-12-14T13:30:12.294Z,7.77
2022-12-14T13:35:37.923Z,5.70
2022-12-14T13:40:58.582Z,4.47
2022-12-14T13:46:08.486Z,6.27
2022-12-14T13:51:23.905Z,6.23
2022-12-14T13:56:33.317Z,5.10
2022-12-14T14:01:59.683Z,6.50
2022-12-14T14:07:37.658Z,6.40
2022-12-14T14:12:43.840Z,6.77
2022-12-14T14:17:49.323Z,7.23
2022-12-14T14:23:25.671Z,6.90
2022-12-14T14:28:30.581Z,6.63
2022-12-14T14:33:48.096Z,6.33
2022-12-14T14:38:51.980Z,6.23
2022-12-14T14:43:56.989Z,7.40
2022-12-14T14:49:01.458Z,8.17
2022-12-14T14:59:55.801Z,6.93
2022-12-14T15:05:32.866Z,6.80
2022-12-14T15:10:29.167Z,6.97
2022-12-14T15:15:37.234Z,6.77
2022-12-14T15:20:41.775Z,6.40
2022-12-14T15:25:44.656Z,5.30
2022-12-14T15:30:48.980Z,8.17
2022-12-14T15:35:53.197Z,8.93
2022-12-14T15:40:57.831Z,7.00
2022-12-14T15:46:05.027Z,6.17
2022-12-14T15:51:13.258Z,6.40
2022-12-14T15:56:20.234Z,6.17
2022-12-14T16:01:24.963Z,5.80
2022-12-14T16:06:32.834Z,6.20
2022-12-14T16:11:38.523Z,6.67
2022-12-14T16:16:41.665Z,6.13
2022-12-14T16:21:49.672Z,5.40
2022-12-14T16:26:57.878Z,5.13
2022-12-14T16:32:02.047Z,5.87
2022-12-14T16:42:33.058Z,6.20
2022-12-14T16:48:02.909Z,7.30
2022-12-14T16:53:16.652Z,5.97
2022-12-14T16:58:19.555Z,7.03
2022-12-14T17:03:24.472Z,7.33
2022-12-14T17:08:28.935Z,9.47
2022-12-14T17:13:31.960Z,7.57
2022-12-14T17:18:38.170Z,7.17
2022-12-14T17:23:44.303Z,7.40
2022-12-14T17:28:47.217Z,5.90
2022-12-14T17:33:51.097Z,9.00
2022-12-14T17:38:55.230Z,6.33
2022-12-14T17:43:58.379Z,7.70
2022-12-14T17:49:06.145Z,9.97
2022-12-14T17:54:15.770Z,10.77
2022-12-14T17:59:18.647Z,9.30
2022-12-14T18:04:21.409Z,13.00
2022-12-14T18:09:25.560Z,7.73
2022-12-14T18:14:28.395Z,6.73
2022-12-14T18:19:31.201Z,8.73
2022-12-14T18:24:35.500Z,7.73
2022-12-14T18:29:38.917Z,8.30
2022-12-14T18:34:41.777Z,7.33
2022-12-14T18:39:46.250Z,7.53
2022-12-14T18:44:52.425Z,8.93
2022-12-14T18:49:56.405Z,5.97
2022-12-14T18:55:00.634Z,6.90
2022-12-14T19:00:04.627Z,5.93
2022-12-14T19:05:08.385Z,5.40
2022-12-14T19:10:17.168Z,11.07
2022-12-14T19:15:23.186Z,13.30
2022-12-14T19:20:26.974Z,10.13
2022-12-14T19:25:31.574Z,6.47
2022-12-14T19:30:34.895Z,5.33
2022-12-14T19:35:40.654Z,5.00
2022-12-14T19:40:46.507Z,5.57
2022-12-14T19:45:49.559Z,6.27
2022-12-14T19:50:52.567Z,5.60
2022-12-14T19:55:57.929Z,4.40
2022-12-14T20:01:00.836Z,6.70
2022-12-14T20:06:05.100Z,5.50
2022-12-14T20:11:10.682Z,5.80
2022-12-14T20:16:16.734Z,5.83
2022-12-14T20:21:22.429Z,5.47
2022-12-14T20:26:27.014Z,5.87
2022-12-14T20:31:29.858Z,6.70
2022-12-14T20:36:32.849Z,6.37
2022-12-14T20:41:37.212Z,5.30
2022-12-14T20:46:42.215Z,4.80
2022-12-14T20:51:46.115Z,4.50
2022-12-14T20:56:50.515Z,4.70
2022-12-14T21:01:56.258Z,4.93
2022-12-14T21:06:59.649Z,6.67
2022-12-14T21:12:22.063Z,5.13
2022-12-14T21:17:26.590Z,4.57
2022-12-14T21:22:30.436Z,3.93
2022-12-14T21:27:38.960Z,3.77
2022-12-14T21:32:41.855Z,3.63
2022-12-14T21:37:44.793Z,3.30
2022-12-14T21:42:51.643Z,3.57
2022-12-14T21:47:54.523Z,4.10
2022-12-14T21:52:57.645Z,3.10
2022-12-14T21:58:26.907Z,3.77
2022-12-14T22:03:30.470Z,4.93
2022-12-14T22:08:33.851Z,2.13
2022-12-14T22:13:38.096Z,2.43
2022-12-14T22:18:41.130Z,1.53
2022-12-14T22:23:44.393Z,1.77
2022-12-14T22:28:50.687Z,1.53
2022-12-14T22:33:55.160Z,1.83
2022-12-14T22:38:58.426Z,1.90
2022-12-14T22:44:02.678Z,1.97
2022-12-14T22:49:05.866Z,2.13
2022-12-14T22:54:08.978Z,2.07
2022-12-14T22:59:15.874Z,2.10
2022-12-14T23:04:19.048Z,1.87
2022-12-14T23:09:39.554Z,3.00
2022-12-14T23:15:01.374Z,1.87
2022-12-14T23:20:22.726Z,2.07
2022-12-14T23:25:43.312Z,1.80
2022-12-14T23:31:05.387Z,2.40
2022-12-14T23:36:26.823Z,1.87
2022-12-14T23:41:48.625Z,2.23
2022-12-14T23:47:11.957Z,2.70
2022-12-14T23:52:32.467Z,1.53
2022-12-14T23:57:53.329Z,2.37
